[Jeden Montag | 1730z - 2030z | EDDN] Nürnberg Monday

Zu Eventkalender hinzugefügt: 543 Daten

Michael Wellner

1024937
RG München - Event
Und es ist mal wieder so weit - der Nuremberg-Monday lockt mit hochkarätigem ATC ab 1930lcl - also 1730z. Auf dem Turm begrüßt Euch heute @Jan Dylla, der bei seinem TWR-CPT beweisen möchte, dass er auch bei erhöhtem Verkehrsaufkommen immer einen kühlen Kopf behält. Also unterstützt ihn bei seiner Prüfung mit möglichst abweschslungsreichen Flügen von und nach Nürnberg (EDDN).
Zumindest das Wetter verspricht mit schwankender Richtung von 020 bis 090 Grad und am Abend mit Windstärken in Böen bis zu 35kt auf alle Fälle äußerst interessante Anflüge - gerade auch für kleinere Maschinen. Zumindest die Sicht ist dafür heute wieder einmal VFR-tauglich.

METAR:
EDDN 201150Z 06016G28KT 020V090 CAVOK 16/M03 Q1016 NOSIG

TAF:
EDDN 201100Z 2012/2112 08015G25KT CAVOK TEMPO 2012/2018 08020G35KT BECMG 2019/2021 07012KT BECMG 2105/2107 07015G25KT TEMPO 2109/2112 08020G35KT

Also schaut, ob auch ihr dieser Herausforderung gewachsen seid und lasst Euch von Jan sicher in die Luft oder auf den Boden bringen.
--

_________________VATSim-Germany / RG München / Event-Department
 
Zuletzt bearbeitet:

Michael Wellner

1024937
RG München - Event
Bereits in 60 Minuten startet schon wieder der Nuremberg-Monday und die Lotsen erwarten Euch wie immer ab 1930lcl - also 1730z am "Albrecht-Dürer-Airport" in Nürnberg (EDDN).
Und auch wenn das Wetter heute nicht so schön ist, wie die letzten Wochen und der eine oder andere Schaer zu erwarten ist, so lässt sich ja mit einem einfachen "Klick" zumindestens in unseren Simulatoren die Sonne ganz leicht wieder einschalten und die Wolken in unerreichbaren Höhen verbannen.

METAR:
EDDN 041550Z 26005KT 230V290 9999 -SHRA FEW013 SCT030TCU 14/11 Q1015 TEMPO SHRA

TAF:
EDDN 041100Z 0412/0512 24008KT 9999 BKN030 TEMPO 0412/0417 SHRA BKN025TCU PROB40 TEMPO 0413/0415 30015G25KT TSRA BKN025CB BECMG 0415/0417 34005KT

Also scheut Euch nicht, auch bei schlechtem Wetter mal unseren Airport und die Kontroller in Nürnberg zu besuchen.
--

_________________VATSim-Germany / RG München / Event-Department
 
Zuletzt bearbeitet:

Michael Wellner

1024937
RG München - Event
Heute erwartet Euch beim wöchentlichen Nuremberg-Monday ein ganz besonderer Leckerbissen. Gemeinsam mit der Dutch-VACC bieten wir Euch einen Shuttleflug zwischen Nürnberg und Rotterdam an und die Lotsen erwarten Euch mit einer vollständigen Abdeckung der Route heute daher bereits ab 1900lcl - also 1700z am "Albrecht Dürer" Airport Nürnberg (EDDN) oder am "Rotterdam The Hague" Airport (EHRD).
Und auch wenn das Wetter derzeit noch mit Wolken, Nieselregen und tief hängenden Wolken aufwartet, so soll es doch zum Abend etwas schöner werden und vielleicht kann sich dann auch der eine oder andere GA-Flieger unter das Dickblech mischen.

METAR:
EDDN 111020Z 36016KT 9999 -RADZ SCT008 BKN013 09/07 Q1000 TEMPO BKN008

TAF:
EDDN 110500Z 1106/1206 04004KT 9999 FEW010 BECMG 1106/1108 01011KT BECMG 1108/1110 FEW008 BKN012 TEMPO 1110/1116 01015G25KT TEMPO 1113/1117 RA BKN008 BECMG 1118/1121 SCT013 BKN020 BECMG 1121/1123 02006KT FM120000 33003KT CAVOK

Also nutzt die Gelegeheit für diesen außergewöhnlichen Flug zwischen Nürnberg und Rotterdam und genießt den erstklassigen Service auf der gesamten Route.
--

_________________VATSim-Germany / RG München / Event-Department
 
Zuletzt bearbeitet:

Michael Wellner

1024937
RG München - Event
Wie an jedem Montag erwartet Euch auch am heutigen Nuremberg-Monday wieder bester Service unserer Kontroller am Airport und in der Luft darüber. Vielleicht bietet sich heute ein Flug nach Düsseldorf an, wo sich die dort eingesetzten Trainees sicher über reichlich Verkehr freuen würden. Und wer dem ungemütlichen Wetter in Deutschland nichts abgewinnen kann, kann ja seinen Flug auch Richtung Süden planen, denn auf den Balearen lässt es sich bei 21 Grad noch ganz gut aushalten.

METAR:
EDDN 250920Z 31012KT 270V330 9999 -SHRA BKN025TCU 14/10 Q1030 NOSIG

TAF:
EDDN 250500Z 2506/2606 28007KT 9999 SCT012 SCT040 BECMG 2506/2509 29012KT TEMPO 2506/2508 BKN012 PROB30 TEMPO 2511/2515 32015G25KT BECMG 2517/2519 VRB03KT
--

_________________VATSim-Germany / RG München / Event-Department
 
Zuletzt bearbeitet:

Pascal Klamm

1451860
RG München - Event
Auch heute ist es wieder soweit und der Albrecht Dürer Airport öffnet für euch im Rahmen des Nürnberg-Montags seine Pforten. Also plant eure Flüge, putzt die Cockpitscheiben, und schon kann es losgehen! Die Controller freuen sich schon auf euch!

METAR:
EDDN 011620Z 01008KT 320V040 CAVOK 25/06 Q1018 NOSIG
TAF:
EDDN 011100Z 0112/0212 06008KT CAVOK
BECMG 0117/0119 VRB03KT
BECMG 0208/0210 04006KT
 
Es türmt sich heute auf... Aktuell noch Pistenrichtung 28, dunkle Wolken sind zu sehen... Könnte spannend werden heute in Nürnberg. Die Lotsen freuen sich auf Euch, bis später! :)

METAR:
2020/06/08 15:20
EDDN 081520Z 36004KT 310V050 9999 FEW040TCU BKN045 17/08 Q1013 NOSIG
TAF:
2020/06/08 12:27
TAF EDDN 081100Z 0812/0912 08004KT 9999 SCT040 PROB30
TEMPO 0812/0819 SHRA SCT030TCU
 

Michael Wellner

1024937
RG München - Event
Es ist Montag und damit wieder Zeit für den Nuremberg-Monday, der Euch wie jede Woche hochkarätigen ATC ab 1930lcl - also 1730z bietet.
Und nach dem doch eher ungünstigen Wetter mit tiefhängenden Wolken der letzten Wochen, kommen heute auch endlich wieder die VFR-Piloten auf ihre Kosten. Also egal ob Dick-oder Dünnblech, VFR oder IFR, Nürnberg erwartet Euch mit bester Besetzung.

METAR:
EDDN 221150Z 32007KT 270V360 9999 SCT047 24/13 Q1023 NOSIG

TAF:
EDDN 221100Z 2212/2312 29008KT 9999 SCT040 BECMG 2217/2220 35005KT TEMPO 2220/2306 12004KT

--

_________________VATSim-Germany / RG München / Event-Department
 
Zuletzt bearbeitet:

Michael Wellner

1024937
RG München - Event
Wie jede Woche heißt es auch heute wieder Nuremberg-Monday und die Lotsen des "Albrecht-Dürer-Airports" laden Euch herzlich ab 1930lcl - also 1730z nach Nürnberg ein.
Die Sicht wird wieder hervorragend sein und die Wolkenuntergrenze bei 4500ft lässt auch für das Dünnblech noch genug Luft nach oben. So bietet sich zum Beispiel ein Flug nach Düsseldorf an, oder als besondere Herausforderung auch nach Kiel, wo heute bis 1930z der Info-Turm besetzt sein wird. Allerdings muss mit leichten Regenschauern und teilweise stärkeren Böen am Abend gerechnet werden.

METAR:
EDDN 291250Z 25009KT 220V300 9999 SCT046 22/10 Q1014 NOSIG

TAF:
EDDN 291100Z 2912/3012 27010KT 9999 SCT045 PROB30 TEMPO 2913/2918 27015KT SHRA SCT045TCU BECMG 2918/2920 21004KT BECMG 3006/3008 24010KT BECMG 3008/3010 25015G25KT

--

_________________VATSim-Germany / RG München / Event-Department
 
Zuletzt bearbeitet:

Michael Wellner

1024937
RG München - Event

Auch in dieser Woche begrüßt Euch heute wieder die Crew des Nuremberg-Monday auf dem "Albrecht-Dürer-Airport" und laden Euch herzlich ab 1930lcl - also 1730z nach Nürnberg ein.
Obwohl mit doch recht frischen Winden gerechnet werden muss, sind die Gewitter der letzten Tage nun bereits durchgezogen und so muss mit nur geringer Bewölkung gerechnet werden, die auch für VFR-Piloten einen durchaus ansprechenden Flug verspricht.
METAR:
EDDN 061220Z 29016G28KT CAVOK 20/06 Q1015 NOSIG

TAF:
EDDN 061100Z 0612/0712 28015G25KT CAVOK BECMG 0619/0621 28004KT

--

_________________VATSim-Germany / RG München / Event-Department
 
Oben